createdAt,value
2022-09-02T00:02:24.458Z,1.17
2022-09-02T00:12:27.604Z,1.40
2022-09-02T00:22:29.655Z,1.20
2022-09-02T00:32:31.777Z,1.20
2022-09-02T00:42:35.428Z,1.27
2022-09-02T00:52:46.688Z,1.20
2022-09-02T01:02:56.410Z,1.00
2022-09-02T01:13:10.121Z,1.23
2022-09-02T01:23:17.515Z,1.30
2022-09-02T01:33:25.372Z,1.17
2022-09-02T01:43:32.061Z,1.10
2022-09-02T01:53:36.953Z,1.20
2022-09-02T02:03:43.382Z,1.10
2022-09-02T02:13:46.141Z,1.07
2022-09-02T02:23:51.336Z,1.00
2022-09-02T02:33:56.892Z,1.20
2022-09-02T02:44:03.792Z,1.17
2022-09-02T02:54:06.573Z,1.10
2022-09-02T03:04:14.198Z,1.20
2022-09-02T03:14:19.378Z,1.40
2022-09-02T03:24:24.788Z,1.23
2022-09-02T03:34:29.184Z,1.37
2022-09-02T03:44:33.355Z,1.50
2022-09-02T03:54:37.905Z,1.63
2022-09-02T04:04:39.993Z,1.73
2022-09-02T04:14:42.807Z,1.77
2022-09-02T04:24:45.872Z,2.10
2022-09-02T04:34:51.297Z,2.07
2022-09-02T04:44:54.879Z,1.83
2022-09-02T04:55:08.510Z,1.73
2022-09-02T05:05:11.763Z,1.80
2022-09-02T05:15:17.417Z,1.58
2022-09-02T05:25:20.749Z,1.52
2022-09-02T05:35:25.811Z,1.20
2022-09-02T05:45:32.428Z,1.30
2022-09-02T05:55:36.823Z,1.52
2022-09-02T06:05:42.695Z,1.40
2022-09-02T06:15:53.113Z,2.10
2022-09-02T06:25:59.750Z,2.00
2022-09-02T06:36:10.558Z,2.10
2022-09-02T06:46:18.475Z,2.00
2022-09-02T06:56:23.819Z,1.75
2022-09-02T07:06:36.122Z,1.50
2022-09-02T07:16:52.517Z,1.80
2022-09-02T07:26:57.296Z,1.85
2022-09-02T07:37:05.086Z,1.38
2022-09-02T07:47:13.116Z,1.58
2022-09-02T07:57:27.719Z,1.33
2022-09-02T08:07:33.591Z,0.85
2022-09-02T08:17:35.708Z,1.20
2022-09-02T08:27:38.350Z,1.10
2022-09-02T08:37:44.433Z,0.80
2022-09-02T08:47:50.946Z,1.00
2022-09-02T08:57:57.497Z,0.80
2022-09-02T09:08:21.746Z,0.65
2022-09-02T09:18:41.904Z,0.70
2022-09-02T09:28:47.266Z,0.57
2022-09-02T09:38:52.109Z,0.98
2022-09-02T09:49:00.074Z,0.85
2022-09-02T09:59:02.635Z,0.73
2022-09-02T10:09:30.577Z,0.70
2022-09-02T10:19:56.717Z,0.68
2022-09-02T10:30:05.712Z,0.60
2022-09-02T10:40:10.887Z,0.60
2022-09-02T10:50:30.738Z,0.65
2022-09-02T11:00:36.577Z,0.80
2022-09-02T11:11:04.791Z,0.60
2022-09-02T11:21:31.882Z,0.60
2022-09-02T11:31:45.068Z,0.43
2022-09-02T11:42:18.456Z,0.70
2022-09-02T11:52:32.467Z,0.77
2022-09-02T12:02:43.539Z,0.65
2022-09-02T12:13:09.799Z,0.55
2022-09-02T12:23:49.925Z,0.70
2022-09-02T12:33:53.814Z,1.55
2022-09-02T12:44:14.423Z,0.70
2022-09-02T12:54:25.594Z,0.57
2022-09-02T13:05:05.940Z,0.88
2022-09-02T13:15:23.454Z,0.60
2022-09-02T13:26:45.490Z,0.50
2022-09-02T13:36:48.018Z,0.60
2022-09-02T13:46:57.394Z,0.82
2022-09-02T13:57:07.822Z,0.55
2022-09-02T14:07:12.786Z,0.70
2022-09-02T14:17:19.261Z,0.63
2022-09-02T14:27:22.581Z,0.85
2022-09-02T14:37:31.244Z,0.90
2022-09-02T14:47:37.909Z,0.88
2022-09-02T14:57:42.233Z,0.52
2022-09-02T15:07:46.812Z,0.50
2022-09-02T15:17:51.473Z,0.45
2022-09-02T15:27:55.800Z,0.50
2022-09-02T15:37:57.887Z,0.65
2022-09-02T15:48:03.403Z,0.80
2022-09-02T15:58:08.311Z,0.80
2022-09-02T16:08:15.141Z,0.65
2022-09-02T16:18:19.492Z,0.57
2022-09-02T16:28:24.950Z,0.70
2022-09-02T16:38:31.966Z,0.80
2022-09-02T16:48:34.289Z,0.52
2022-09-02T16:58:39.191Z,0.82
2022-09-02T17:08:50.697Z,0.60
2022-09-02T17:18:55.209Z,0.82
2022-09-02T17:29:07.706Z,0.95
2022-09-02T17:39:19.842Z,1.40
2022-09-02T17:49:22.534Z,0.98
2022-09-02T17:59:42.959Z,0.80
2022-09-02T18:09:46.757Z,1.10
2022-09-02T18:20:14.088Z,1.05
2022-09-02T18:30:32.255Z,1.10
2022-09-02T18:40:44.646Z,1.13
2022-09-02T18:50:52.593Z,0.90
2022-09-02T19:01:01.854Z,1.30
2022-09-02T19:11:13.997Z,1.60
2022-09-02T19:21:45.039Z,1.90
2022-09-02T19:31:49.136Z,2.10
2022-09-02T19:41:54.623Z,2.22
2022-09-02T19:51:56.939Z,1.92
2022-09-02T20:02:00.709Z,2.28
2022-09-02T20:12:02.868Z,2.03
2022-09-02T20:22:06.578Z,2.10
2022-09-02T20:32:47.880Z,2.10
2022-09-02T20:43:03.508Z,2.67
2022-09-02T20:53:05.897Z,2.47
2022-09-02T21:03:12.281Z,2.30
2022-09-02T21:13:21.329Z,2.67
2022-09-02T21:23:48.728Z,2.60
2022-09-02T21:33:55.053Z,2.88
2022-09-02T21:44:25.206Z,3.03
2022-09-02T21:54:48.340Z,2.65
2022-09-02T22:04:58.516Z,3.05
2022-09-02T22:15:14.867Z,3.28
2022-09-02T22:25:21.930Z,2.70
2022-09-02T22:35:31.772Z,2.53
2022-09-02T22:46:16.372Z,2.90
2022-09-02T22:56:39.071Z,2.40
2022-09-02T23:06:53.947Z,2.97
2022-09-02T23:17:15.729Z,3.00
2022-09-02T23:27:34.385Z,3.13
2022-09-02T23:38:00.467Z,3.30
2022-09-02T23:48:41.877Z,3.60
2022-09-02T23:59:18.263Z,3.63
